sensor_id;sensor_type;location;lat;lon;timestamp;P1;durP1;ratioP1;P2;durP2;ratioP2
12348;SDS011;5974;42.710;27.258;2023-01-31T00:02:33;23.50;;;15.07;;
12348;SDS011;5974;42.710;27.258;2023-01-31T00:05:22;24.83;;;15.90;;
12348;SDS011;5974;42.710;27.258;2023-01-31T00:07:59;25.53;;;15.57;;
12348;SDS011;5974;42.710;27.258;2023-01-31T00:10:42;24.63;;;15.40;;
12348;SDS011;5974;42.710;27.258;2023-01-31T00:13:49;25.03;;;15.23;;
12348;SDS011;5974;42.710;27.258;2023-01-31T00:19:39;22.50;;;14.57;;
12348;SDS011;5974;42.710;27.258;2023-01-31T00:22:13;23.53;;;15.13;;
12348;SDS011;5974;42.710;27.258;2023-01-31T00:25:05;25.13;;;16.00;;
12348;SDS011;5974;42.710;27.258;2023-01-31T00:27:35;26.83;;;17.70;;
12348;SDS011;5974;42.710;27.258;2023-01-31T00:30:14;30.77;;;17.63;;
12348;SDS011;5974;42.710;27.258;2023-01-31T00:32:56;27.50;;;16.47;;
12348;SDS011;5974;42.710;27.258;2023-01-31T00:35:31;28.00;;;17.83;;
12348;SDS011;5974;42.710;27.258;2023-01-31T00:38:04;29.83;;;17.87;;
12348;SDS011;5974;42.710;27.258;2023-01-31T00:40:38;30.93;;;18.77;;
12348;SDS011;5974;42.710;27.258;2023-01-31T00:43:09;29.90;;;19.77;;
12348;SDS011;5974;42.710;27.258;2023-01-31T00:45:39;28.20;;;18.63;;
12348;SDS011;5974;42.710;27.258;2023-01-31T00:48:08;32.33;;;19.73;;
12348;SDS011;5974;42.710;27.258;2023-01-31T00:50:54;32.63;;;20.10;;
12348;SDS011;5974;42.710;27.258;2023-01-31T00:53:26;29.53;;;18.67;;
12348;SDS011;5974;42.710;27.258;2023-01-31T00:56:00;31.37;;;20.00;;
12348;SDS011;5974;42.710;27.258;2023-01-31T00:58:50;32.27;;;19.83;;
12348;SDS011;5974;42.710;27.258;2023-01-31T01:05:52;33.03;;;20.40;;
12348;SDS011;5974;42.710;27.258;2023-01-31T01:09:12;35.10;;;20.50;;
12348;SDS011;5974;42.710;27.258;2023-01-31T01:12:15;32.53;;;20.37;;
12348;SDS011;5974;42.710;27.258;2023-01-31T01:15:25;34.73;;;20.87;;
12348;SDS011;5974;42.710;27.258;2023-01-31T01:18:57;28.57;;;18.20;;
12348;SDS011;5974;42.710;27.258;2023-01-31T01:21:45;31.20;;;18.97;;
12348;SDS011;5974;42.710;27.258;2023-01-31T01:24:57;29.60;;;18.57;;
12348;SDS011;5974;42.710;27.258;2023-01-31T01:27:38;28.03;;;17.83;;
12348;SDS011;5974;42.710;27.258;2023-01-31T01:30:30;28.10;;;17.37;;
12348;SDS011;5974;42.710;27.258;2023-01-31T01:33:02;26.00;;;16.53;;
12348;SDS011;5974;42.710;27.258;2023-01-31T01:36:18;28.33;;;16.53;;
12348;SDS011;5974;42.710;27.258;2023-01-31T01:38:57;28.93;;;18.30;;
12348;SDS011;5974;42.710;27.258;2023-01-31T01:41:44;27.57;;;16.97;;
12348;SDS011;5974;42.710;27.258;2023-01-31T01:44:41;25.00;;;15.83;;
12348;SDS011;5974;42.710;27.258;2023-01-31T01:47:41;26.47;;;16.20;;
12348;SDS011;5974;42.710;27.258;2023-01-31T01:50:21;23.67;;;15.17;;
12348;SDS011;5974;42.710;27.258;2023-01-31T01:53:11;24.40;;;15.83;;
12348;SDS011;5974;42.710;27.258;2023-01-31T01:55:45;29.40;;;17.93;;
12348;SDS011;5974;42.710;27.258;2023-01-31T02:01:40;34.23;;;19.83;;
12348;SDS011;5974;42.710;27.258;2023-01-31T02:07:35;36.07;;;20.93;;
12348;SDS011;5974;42.710;27.258;2023-01-31T02:10:25;32.13;;;20.50;;
12348;SDS011;5974;42.710;27.258;2023-01-31T02:13:37;33.03;;;19.47;;
12348;SDS011;5974;42.710;27.258;2023-01-31T04:00:08;43.53;;;26.70;;
12348;SDS011;5974;42.710;27.258;2023-01-31T04:07:10;61.10;;;35.57;;
12348;SDS011;5974;42.710;27.258;2023-01-31T10:11:38;12.73;;;9.17;;
12348;SDS011;5974;42.710;27.258;2023-01-31T10:20:53;13.20;;;10.30;;
12348;SDS011;5974;42.710;27.258;2023-01-31T11:03:09;16.67;;;11.87;;
12348;SDS011;5974;42.710;27.258;2023-01-31T14:35:24;7.50;;;6.27;;
12348;SDS011;5974;42.710;27.258;2023-01-31T14:38:05;7.80;;;6.50;;
12348;SDS011;5974;42.710;27.258;2023-01-31T14:44:11;7.40;;;6.13;;
12348;SDS011;5974;42.710;27.258;2023-01-31T15:10:59;10.00;;;7.83;;
12348;SDS011;5974;42.710;27.258;2023-01-31T15:14:30;11.20;;;8.40;;
12348;SDS011;5974;42.710;27.258;2023-01-31T15:17:23;12.53;;;8.43;;
12348;SDS011;5974;42.710;27.258;2023-01-31T15:20:27;11.40;;;8.30;;
12348;SDS011;5974;42.710;27.258;2023-01-31T15:23:34;11.33;;;8.13;;
12348;SDS011;5974;42.710;27.258;2023-01-31T17:56:38;51.90;;;31.67;;
12348;SDS011;5974;42.710;27.258;2023-01-31T17:59:10;25.37;;;17.40;;
12348;SDS011;5974;42.710;27.258;2023-01-31T18:01:39;11.23;;;8.53;;
12348;SDS011;5974;42.710;27.258;2023-01-31T18:04:11;21.07;;;13.17;;
12348;SDS011;5974;42.710;27.258;2023-01-31T18:06:42;31.93;;;25.00;;
12348;SDS011;5974;42.710;27.258;2023-01-31T18:09:15;23.50;;;17.47;;
12348;SDS011;5974;42.710;27.258;2023-01-31T18:11:51;18.83;;;13.70;;
12348;SDS011;5974;42.710;27.258;2023-01-31T18:14:23;15.20;;;10.63;;
12348;SDS011;5974;42.710;27.258;2023-01-31T18:16:53;8.93;;;7.13;;
12348;SDS011;5974;42.710;27.258;2023-01-31T18:19:21;9.87;;;8.30;;
12348;SDS011;5974;42.710;27.258;2023-01-31T18:21:51;11.07;;;8.33;;
12348;SDS011;5974;42.710;27.258;2023-01-31T18:24:20;7.97;;;7.00;;
12348;SDS011;5974;42.710;27.258;2023-01-31T18:26:52;5.70;;;5.10;;
12348;SDS011;5974;42.710;27.258;2023-01-31T18:29:23;6.77;;;5.60;;
12348;SDS011;5974;42.710;27.258;2023-01-31T18:31:52;5.60;;;5.00;;
12348;SDS011;5974;42.710;27.258;2023-01-31T18:34:29;5.23;;;4.40;;
12348;SDS011;5974;42.710;27.258;2023-01-31T18:36:59;5.10;;;4.47;;
12348;SDS011;5974;42.710;27.258;2023-01-31T18:39:44;5.03;;;4.57;;
12348;SDS011;5974;42.710;27.258;2023-01-31T18:42:21;5.30;;;4.80;;
12348;SDS011;5974;42.710;27.258;2023-01-31T18:44:53;6.63;;;5.27;;
12348;SDS011;5974;42.710;27.258;2023-01-31T18:47:26;5.50;;;4.90;;
12348;SDS011;5974;42.710;27.258;2023-01-31T18:50:01;5.53;;;5.03;;
12348;SDS011;5974;42.710;27.258;2023-01-31T18:52:33;7.47;;;5.90;;
12348;SDS011;5974;42.710;27.258;2023-01-31T18:55:08;10.97;;;8.60;;
12348;SDS011;5974;42.710;27.258;2023-01-31T18:57:39;10.47;;;9.07;;
12348;SDS011;5974;42.710;27.258;2023-01-31T19:00:15;6.93;;;6.23;;
12348;SDS011;5974;42.710;27.258;2023-01-31T19:02:48;8.47;;;6.63;;
12348;SDS011;5974;42.710;27.258;2023-01-31T19:05:20;9.57;;;8.13;;
12348;SDS011;5974;42.710;27.258;2023-01-31T19:07:50;10.43;;;8.37;;
12348;SDS011;5974;42.710;27.258;2023-01-31T19:10:21;11.27;;;9.83;;
12348;SDS011;5974;42.710;27.258;2023-01-31T19:12:52;13.60;;;9.47;;
12348;SDS011;5974;42.710;27.258;2023-01-31T19:15:22;16.97;;;12.17;;
12348;SDS011;5974;42.710;27.258;2023-01-31T19:17:52;18.80;;;15.33;;
12348;SDS011;5974;42.710;27.258;2023-01-31T19:20:24;24.47;;;19.43;;
12348;SDS011;5974;42.710;27.258;2023-01-31T19:22:57;36.40;;;28.13;;
12348;SDS011;5974;42.710;27.258;2023-01-31T19:25:28;38.13;;;29.27;;
12348;SDS011;5974;42.710;27.258;2023-01-31T19:28:07;43.77;;;29.53;;
12348;SDS011;5974;42.710;27.258;2023-01-31T19:30:39;20.07;;;15.47;;
12348;SDS011;5974;42.710;27.258;2023-01-31T19:33:12;18.70;;;15.83;;
12348;SDS011;5974;42.710;27.258;2023-01-31T19:35:45;17.13;;;13.90;;
12348;SDS011;5974;42.710;27.258;2023-01-31T19:38:19;18.13;;;14.10;;
12348;SDS011;5974;42.710;27.258;2023-01-31T19:40:49;12.63;;;9.87;;
12348;SDS011;5974;42.710;27.258;2023-01-31T19:43:32;9.77;;;8.17;;
12348;SDS011;5974;42.710;27.258;2023-01-31T19:46:04;7.93;;;7.00;;
12348;SDS011;5974;42.710;27.258;2023-01-31T19:48:36;8.00;;;7.20;;
12348;SDS011;5974;42.710;27.258;2023-01-31T19:51:07;6.03;;;5.43;;
12348;SDS011;5974;42.710;27.258;2023-01-31T19:53:37;6.63;;;5.33;;
12348;SDS011;5974;42.710;27.258;2023-01-31T19:56:12;6.33;;;5.20;;
12348;SDS011;5974;42.710;27.258;2023-01-31T19:58:42;6.37;;;5.33;;
12348;SDS011;5974;42.710;27.258;2023-01-31T20:01:10;7.23;;;5.70;;
12348;SDS011;5974;42.710;27.258;2023-01-31T20:03:40;7.57;;;6.60;;
12348;SDS011;5974;42.710;27.258;2023-01-31T20:06:07;7.73;;;6.43;;
12348;SDS011;5974;42.710;27.258;2023-01-31T20:08:36;7.97;;;5.50;;
12348;SDS011;5974;42.710;27.258;2023-01-31T20:11:03;6.57;;;5.80;;
12348;SDS011;5974;42.710;27.258;2023-01-31T20:13:31;7.17;;;6.20;;
12348;SDS011;5974;42.710;27.258;2023-01-31T20:16:01;7.07;;;6.20;;
12348;SDS011;5974;42.710;27.258;2023-01-31T20:18:30;6.70;;;6.00;;
12348;SDS011;5974;42.710;27.258;2023-01-31T20:20:57;7.47;;;6.30;;
12348;SDS011;5974;42.710;27.258;2023-01-31T20:23:25;11.23;;;9.57;;
12348;SDS011;5974;42.710;27.258;2023-01-31T20:25:52;11.50;;;9.80;;
12348;SDS011;5974;42.710;27.258;2023-01-31T20:28:19;12.30;;;9.37;;
12348;SDS011;5974;42.710;27.258;2023-01-31T20:30:46;24.97;;;16.70;;
12348;SDS011;5974;42.710;27.258;2023-01-31T20:33:15;22.43;;;16.23;;
12348;SDS011;5974;42.710;27.258;2023-01-31T20:35:42;50.37;;;27.37;;
12348;SDS011;5974;42.710;27.258;2023-01-31T20:38:09;33.03;;;24.33;;
12348;SDS011;5974;42.710;27.258;2023-01-31T20:40:38;17.33;;;13.37;;
12348;SDS011;5974;42.710;27.258;2023-01-31T20:43:05;20.90;;;15.07;;
12348;SDS011;5974;42.710;27.258;2023-01-31T20:45:32;12.23;;;9.87;;
12348;SDS011;5974;42.710;27.258;2023-01-31T20:47:59;17.70;;;12.53;;
12348;SDS011;5974;42.710;27.258;2023-01-31T20:50:27;13.13;;;10.17;;
12348;SDS011;5974;42.710;27.258;2023-01-31T20:52:54;8.23;;;7.37;;
12348;SDS011;5974;42.710;27.258;2023-01-31T20:55:22;8.70;;;7.80;;
12348;SDS011;5974;42.710;27.258;2023-01-31T20:57:49;8.17;;;6.80;;
12348;SDS011;5974;42.710;27.258;2023-01-31T21:00:16;8.40;;;7.10;;
12348;SDS011;5974;42.710;27.258;2023-01-31T21:02:43;10.97;;;8.50;;
12348;SDS011;5974;42.710;27.258;2023-01-31T21:05:10;9.57;;;7.83;;
12348;SDS011;5974;42.710;27.258;2023-01-31T21:07:39;12.43;;;8.93;;
12348;SDS011;5974;42.710;27.258;2023-01-31T21:10:06;10.23;;;8.33;;
12348;SDS011;5974;42.710;27.258;2023-01-31T21:12:34;10.93;;;8.60;;
12348;SDS011;5974;42.710;27.258;2023-01-31T21:15:00;11.50;;;9.07;;
12348;SDS011;5974;42.710;27.258;2023-01-31T21:17:27;10.60;;;8.77;;
12348;SDS011;5974;42.710;27.258;2023-01-31T21:19:54;10.97;;;8.47;;
12348;SDS011;5974;42.710;27.258;2023-01-31T21:22:21;9.67;;;8.07;;
12348;SDS011;5974;42.710;27.258;2023-01-31T21:24:49;10.20;;;8.13;;
12348;SDS011;5974;42.710;27.258;2023-01-31T21:27:18;10.23;;;7.90;;
12348;SDS011;5974;42.710;27.258;2023-01-31T21:29:45;10.70;;;7.13;;
12348;SDS011;5974;42.710;27.258;2023-01-31T21:32:12;8.83;;;7.40;;
12348;SDS011;5974;42.710;27.258;2023-01-31T21:34:38;11.70;;;8.50;;
12348;SDS011;5974;42.710;27.258;2023-01-31T21:37:05;11.77;;;8.70;;
12348;SDS011;5974;42.710;27.258;2023-01-31T21:39:32;12.63;;;8.70;;
12348;SDS011;5974;42.710;27.258;2023-01-31T21:42:00;9.33;;;8.07;;
12348;SDS011;5974;42.710;27.258;2023-01-31T21:44:44;9.80;;;8.77;;
12348;SDS011;5974;42.710;27.258;2023-01-31T21:47:12;13.53;;;10.40;;
12348;SDS011;5974;42.710;27.258;2023-01-31T21:49:40;12.17;;;8.70;;
12348;SDS011;5974;42.710;27.258;2023-01-31T21:52:07;10.37;;;8.53;;
12348;SDS011;5974;42.710;27.258;2023-01-31T21:54:34;10.33;;;8.40;;
12348;SDS011;5974;42.710;27.258;2023-01-31T21:57:02;11.13;;;9.10;;
12348;SDS011;5974;42.710;27.258;2023-01-31T21:59:29;9.90;;;8.00;;
12348;SDS011;5974;42.710;27.258;2023-01-31T22:01:57;9.83;;;7.60;;
12348;SDS011;5974;42.710;27.258;2023-01-31T22:04:24;12.07;;;7.97;;
12348;SDS011;5974;42.710;27.258;2023-01-31T22:06:51;9.60;;;7.27;;
12348;SDS011;5974;42.710;27.258;2023-01-31T22:09:19;9.10;;;7.47;;
12348;SDS011;5974;42.710;27.258;2023-01-31T22:11:46;9.60;;;7.70;;
12348;SDS011;5974;42.710;27.258;2023-01-31T22:14:15;10.50;;;7.80;;
12348;SDS011;5974;42.710;27.258;2023-01-31T22:16:42;10.00;;;8.03;;
12348;SDS011;5974;42.710;27.258;2023-01-31T22:19:11;10.70;;;8.37;;
12348;SDS011;5974;42.710;27.258;2023-01-31T22:21:39;8.40;;;6.70;;
12348;SDS011;5974;42.710;27.258;2023-01-31T22:24:07;7.70;;;6.90;;
12348;SDS011;5974;42.710;27.258;2023-01-31T22:26:36;9.27;;;7.53;;
12348;SDS011;5974;42.710;27.258;2023-01-31T22:29:06;8.80;;;6.73;;
12348;SDS011;5974;42.710;27.258;2023-01-31T22:31:35;9.87;;;7.80;;
12348;SDS011;5974;42.710;27.258;2023-01-31T22:34:04;8.87;;;7.20;;
12348;SDS011;5974;42.710;27.258;2023-01-31T22:36:32;9.37;;;7.50;;
12348;SDS011;5974;42.710;27.258;2023-01-31T22:39:00;24.47;;;16.50;;
12348;SDS011;5974;42.710;27.258;2023-01-31T22:41:27;10.33;;;8.23;;
12348;SDS011;5974;42.710;27.258;2023-01-31T22:43:54;9.67;;;7.83;;
12348;SDS011;5974;42.710;27.258;2023-01-31T22:46:22;28.27;;;24.40;;
12348;SDS011;5974;42.710;27.258;2023-01-31T22:48:52;12.00;;;8.60;;
12348;SDS011;5974;42.710;27.258;2023-01-31T22:51:20;10.83;;;9.10;;
12348;SDS011;5974;42.710;27.258;2023-01-31T22:53:49;10.03;;;8.37;;
12348;SDS011;5974;42.710;27.258;2023-01-31T22:56:16;10.03;;;7.80;;
12348;SDS011;5974;42.710;27.258;2023-01-31T22:58:45;11.63;;;8.50;;
12348;SDS011;5974;42.710;27.258;2023-01-31T23:01:12;12.50;;;8.30;;
12348;SDS011;5974;42.710;27.258;2023-01-31T23:03:40;13.50;;;8.43;;
12348;SDS011;5974;42.710;27.258;2023-01-31T23:06:09;12.53;;;9.30;;
12348;SDS011;5974;42.710;27.258;2023-01-31T23:08:37;11.30;;;8.77;;
12348;SDS011;5974;42.710;27.258;2023-01-31T23:11:04;13.70;;;9.80;;
12348;SDS011;5974;42.710;27.258;2023-01-31T23:13:32;12.70;;;8.27;;
12348;SDS011;5974;42.710;27.258;2023-01-31T23:15:59;22.70;;;14.73;;
12348;SDS011;5974;42.710;27.258;2023-01-31T23:18:26;10.07;;;7.83;;
12348;SDS011;5974;42.710;27.258;2023-01-31T23:20:53;10.30;;;7.47;;
12348;SDS011;5974;42.710;27.258;2023-01-31T23:23:22;10.13;;;7.30;;
12348;SDS011;5974;42.710;27.258;2023-01-31T23:25:51;11.37;;;7.90;;
12348;SDS011;5974;42.710;27.258;2023-01-31T23:28:18;10.43;;;7.10;;
12348;SDS011;5974;42.710;27.258;2023-01-31T23:30:45;10.33;;;7.77;;
12348;SDS011;5974;42.710;27.258;2023-01-31T23:33:12;8.97;;;7.10;;
12348;SDS011;5974;42.710;27.258;2023-01-31T23:35:39;8.87;;;7.10;;
12348;SDS011;5974;42.710;27.258;2023-01-31T23:38:06;19.20;;;14.00;;
12348;SDS011;5974;42.710;27.258;2023-01-31T23:40:35;29.57;;;20.57;;
12348;SDS011;5974;42.710;27.258;2023-01-31T23:43:01;29.23;;;20.87;;
12348;SDS011;5974;42.710;27.258;2023-01-31T23:45:28;15.00;;;11.17;;
12348;SDS011;5974;42.710;27.258;2023-01-31T23:47:56;12.83;;;9.53;;
12348;SDS011;5974;42.710;27.258;2023-01-31T23:50:23;8.83;;;7.50;;
12348;SDS011;5974;42.710;27.258;2023-01-31T23:52:50;8.70;;;6.73;;
12348;SDS011;5974;42.710;27.258;2023-01-31T23:55:17;8.07;;;6.33;;
12348;SDS011;5974;42.710;27.258;2023-01-31T23:57:48;8.33;;;7.00;;
